sensor_id;sensor_type;location;lat;lon;timestamp;pressure;altitude;pressure_sealevel;temperature;humidity
15884;BME280;8040;50.254;10.960;2023-04-23T00:01:05;97458.00;;;17.63;57.33
15884;BME280;8040;50.254;10.960;2023-04-23T00:03:33;97406.53;;;17.34;56.93
15884;BME280;8040;50.254;10.960;2023-04-23T00:06:07;97401.78;;;17.31;56.99
15884;BME280;8040;50.254;10.960;2023-04-23T00:08:34;97442.19;;;17.53;56.99
15884;BME280;8040;50.254;10.960;2023-04-23T00:11:00;97413.34;;;17.40;56.51
15884;BME280;8040;50.254;10.960;2023-04-23T00:13:26;97417.31;;;17.43;56.43
15884;BME280;8040;50.254;10.960;2023-04-23T00:15:52;97442.25;;;17.57;56.21
15884;BME280;8040;50.254;10.960;2023-04-23T00:18:17;97391.47;;;17.25;56.48
15884;BME280;8040;50.254;10.960;2023-04-23T00:20:44;97388.22;;;17.19;56.00
15884;BME280;8040;50.254;10.960;2023-04-23T00:23:09;97393.41;;;17.24;56.84
15884;BME280;8040;50.254;10.960;2023-04-23T00:25:35;97379.94;;;17.16;55.72
15884;BME280;8040;50.254;10.960;2023-04-23T00:28:00;97404.09;;;17.29;55.02
15884;BME280;8040;50.254;10.960;2023-04-23T00:30:26;97397.66;;;17.22;54.57
15884;BME280;8040;50.254;10.960;2023-04-23T00:32:51;97380.22;;;17.11;54.68
15884;BME280;8040;50.254;10.960;2023-04-23T00:35:17;97436.28;;;17.51;54.05
15884;BME280;8040;50.254;10.960;2023-04-23T00:37:42;97413.97;;;17.34;53.67
15884;BME280;8040;50.254;10.960;2023-04-23T00:40:08;97414.75;;;17.34;53.88
15884;BME280;8040;50.254;10.960;2023-04-23T00:42:35;97380.00;;;17.19;54.15
15884;BME280;8040;50.254;10.960;2023-04-23T00:45:01;97354.34;;;16.89;53.24
15884;BME280;8040;50.254;10.960;2023-04-23T00:47:28;97411.91;;;17.27;53.37
15884;BME280;8040;50.254;10.960;2023-04-23T00:49:55;97405.81;;;17.18;53.18
15884;BME280;8040;50.254;10.960;2023-04-23T00:52:20;97441.25;;;17.46;53.09
15884;BME280;8040;50.254;10.960;2023-04-23T00:54:46;97410.97;;;17.20;52.88
15884;BME280;8040;50.254;10.960;2023-04-23T00:57:11;97411.72;;;17.20;53.05
15884;BME280;8040;50.254;10.960;2023-04-23T00:59:37;97414.19;;;17.25;52.99
15884;BME280;8040;50.254;10.960;2023-04-23T01:02:03;97415.34;;;17.24;52.83
15884;BME280;8040;50.254;10.960;2023-04-23T01:04:29;97388.38;;;17.07;52.80
15884;BME280;8040;50.254;10.960;2023-04-23T01:06:56;97416.91;;;17.25;53.33
15884;BME280;8040;50.254;10.960;2023-04-23T01:09:22;97356.97;;;16.82;53.03
15884;BME280;8040;50.254;10.960;2023-04-23T01:11:50;97418.97;;;17.28;53.19
15884;BME280;8040;50.254;10.960;2023-04-23T01:16:50;97429.06;;;17.24;52.96
15884;BME280;8040;50.254;10.960;2023-04-23T01:19:17;97424.25;;;17.18;53.24
15884;BME280;8040;50.254;10.960;2023-04-23T01:21:42;97428.34;;;17.27;53.21
15884;BME280;8040;50.254;10.960;2023-04-23T01:24:11;97415.69;;;17.23;53.33
15884;BME280;8040;50.254;10.960;2023-04-23T01:26:38;97421.25;;;17.26;53.27
15884;BME280;8040;50.254;10.960;2023-04-23T01:29:03;97431.50;;;17.29;53.22
15884;BME280;8040;50.254;10.960;2023-04-23T01:31:29;97420.28;;;17.15;53.27
15884;BME280;8040;50.254;10.960;2023-04-23T01:33:56;97419.47;;;17.15;53.43
15884;BME280;8040;50.254;10.960;2023-04-23T01:36:23;97435.56;;;17.16;53.50
15884;BME280;8040;50.254;10.960;2023-04-23T01:38:49;97429.63;;;17.14;53.48
15884;BME280;8040;50.254;10.960;2023-04-23T01:41:15;97436.66;;;17.12;53.57
15884;BME280;8040;50.254;10.960;2023-04-23T01:43:41;97419.69;;;17.06;53.65
15884;BME280;8040;50.254;10.960;2023-04-23T01:46:08;97442.63;;;17.17;53.75
15884;BME280;8040;50.254;10.960;2023-04-23T01:48:33;97433.44;;;17.10;53.65
15884;BME280;8040;50.254;10.960;2023-04-23T01:50:59;97437.34;;;17.09;54.02
15884;BME280;8040;50.254;10.960;2023-04-23T01:53:25;97453.88;;;17.12;54.07
15884;BME280;8040;50.254;10.960;2023-04-23T01:55:50;97438.00;;;17.02;54.10
15884;BME280;8040;50.254;10.960;2023-04-23T01:58:16;97460.06;;;17.09;54.54
15884;BME280;8040;50.254;10.960;2023-04-23T02:00:42;97460.84;;;17.10;54.39
15884;BME280;8040;50.254;10.960;2023-04-23T02:03:07;97442.09;;;16.93;54.48
15884;BME280;8040;50.254;10.960;2023-04-23T02:05:34;97445.00;;;17.00;54.80
15884;BME280;8040;50.254;10.960;2023-04-23T02:08:00;97442.34;;;17.03;54.79
15884;BME280;8040;50.254;10.960;2023-04-23T02:10:26;97437.69;;;16.88;54.46
15884;BME280;8040;50.254;10.960;2023-04-23T02:12:51;97442.03;;;16.89;54.75
15884;BME280;8040;50.254;10.960;2023-04-23T02:15:17;97452.28;;;16.92;54.98
15884;BME280;8040;50.254;10.960;2023-04-23T02:17:44;97444.75;;;16.89;55.30
15884;BME280;8040;50.254;10.960;2023-04-23T02:20:10;97452.56;;;16.87;55.34
15884;BME280;8040;50.254;10.960;2023-04-23T02:22:40;97449.09;;;16.90;55.70
15884;BME280;8040;50.254;10.960;2023-04-23T02:25:06;97453.72;;;16.86;55.69
15884;BME280;8040;50.254;10.960;2023-04-23T02:27:33;97447.06;;;16.87;55.66
15884;BME280;8040;50.254;10.960;2023-04-23T02:29:58;97441.59;;;16.87;55.85
15884;BME280;8040;50.254;10.960;2023-04-23T02:32:24;97446.38;;;16.90;56.06
15884;BME280;8040;50.254;10.960;2023-04-23T02:34:50;97439.22;;;16.86;55.89
15884;BME280;8040;50.254;10.960;2023-04-23T02:37:16;97440.00;;;16.86;56.33
15884;BME280;8040;50.254;10.960;2023-04-23T02:39:41;97436.03;;;16.84;56.03
15884;BME280;8040;50.254;10.960;2023-04-23T02:42:06;97439.50;;;16.81;56.34
15884;BME280;8040;50.254;10.960;2023-04-23T02:44:32;97442.97;;;16.78;56.16
15884;BME280;8040;50.254;10.960;2023-04-23T02:46:58;97440.91;;;16.75;56.39
15884;BME280;8040;50.254;10.960;2023-04-23T02:49:23;97438.19;;;16.75;56.47
15884;BME280;8040;50.254;10.960;2023-04-23T02:51:48;97451.53;;;16.76;56.37
15884;BME280;8040;50.254;10.960;2023-04-23T02:54:14;97455.06;;;16.77;56.32
15884;BME280;8040;50.254;10.960;2023-04-23T02:56:39;97442.00;;;16.70;56.45
15884;BME280;8040;50.254;10.960;2023-04-23T02:59:05;97451.44;;;16.73;56.36
15884;BME280;8040;50.254;10.960;2023-04-23T03:01:30;97456.94;;;16.73;56.90
15884;BME280;8040;50.254;10.960;2023-04-23T03:03:56;97447.19;;;16.56;57.76
15884;BME280;8040;50.254;10.960;2023-04-23T03:06:22;97459.09;;;16.64;58.95
15884;BME280;8040;50.254;10.960;2023-04-23T03:08:47;97465.34;;;16.64;59.44
15884;BME280;8040;50.254;10.960;2023-04-23T03:11:13;97452.66;;;16.56;59.69
15884;BME280;8040;50.254;10.960;2023-04-23T03:13:40;97466.34;;;16.56;59.33
15884;BME280;8040;50.254;10.960;2023-04-23T03:16:06;97458.03;;;16.37;59.68
15884;BME280;8040;50.254;10.960;2023-04-23T03:18:31;97465.72;;;16.47;60.08
15884;BME280;8040;50.254;10.960;2023-04-23T03:20:56;97462.56;;;16.45;60.56
15884;BME280;8040;50.254;10.960;2023-04-23T03:23:22;97463.28;;;16.42;60.40
15884;BME280;8040;50.254;10.960;2023-04-23T03:25:47;97473.50;;;16.45;60.27
15884;BME280;8040;50.254;10.960;2023-04-23T03:28:12;97477.06;;;16.46;60.68
15884;BME280;8040;50.254;10.960;2023-04-23T03:30:38;97461.47;;;16.34;61.90
15884;BME280;8040;50.254;10.960;2023-04-23T03:33:03;97467.88;;;16.38;62.90
15884;BME280;8040;50.254;10.960;2023-04-23T03:35:29;97474.72;;;16.32;63.24
15884;BME280;8040;50.254;10.960;2023-04-23T03:37:54;97477.03;;;16.30;63.60
15884;BME280;8040;50.254;10.960;2023-04-23T03:40:20;97461.41;;;16.15;64.26
15884;BME280;8040;50.254;10.960;2023-04-23T03:42:46;97467.34;;;16.17;64.52
15884;BME280;8040;50.254;10.960;2023-04-23T03:45:11;97481.53;;;16.23;64.91
15884;BME280;8040;50.254;10.960;2023-04-23T03:47:38;97479.88;;;16.18;65.20
15884;BME280;8040;50.254;10.960;2023-04-23T03:50:05;97473.50;;;16.14;65.19
15884;BME280;8040;50.254;10.960;2023-04-23T03:52:31;97471.84;;;16.10;65.29
15884;BME280;8040;50.254;10.960;2023-04-23T03:54:56;97467.06;;;16.07;65.73
15884;BME280;8040;50.254;10.960;2023-04-23T03:57:22;97478.19;;;15.98;65.87
15884;BME280;8040;50.254;10.960;2023-04-23T03:59:47;97470.19;;;15.90;66.54
15884;BME280;8040;50.254;10.960;2023-04-23T04:02:12;97479.50;;;15.89;67.31
15884;BME280;8040;50.254;10.960;2023-04-23T04:04:38;97480.75;;;15.92;68.69
15884;BME280;8040;50.254;10.960;2023-04-23T04:07:03;97483.72;;;15.87;68.49
15884;BME280;8040;50.254;10.960;2023-04-23T04:09:29;97474.19;;;15.81;68.50
15884;BME280;8040;50.254;10.960;2023-04-23T04:11:55;97482.88;;;15.83;69.35
15884;BME280;8040;50.254;10.960;2023-04-23T04:14:22;97481.97;;;15.79;69.72
15884;BME280;8040;50.254;10.960;2023-04-23T04:16:47;97482.03;;;15.67;70.08
15884;BME280;8040;50.254;10.960;2023-04-23T04:19:13;97492.72;;;15.72;70.29
15884;BME280;8040;50.254;10.960;2023-04-23T04:21:38;97486.66;;;15.78;71.01
15884;BME280;8040;50.254;10.960;2023-04-23T04:24:04;97485.91;;;15.66;71.12
15884;BME280;8040;50.254;10.960;2023-04-23T04:26:29;97487.69;;;15.74;71.30
15884;BME280;8040;50.254;10.960;2023-04-23T04:28:57;97484.44;;;15.68;71.88
15884;BME280;8040;50.254;10.960;2023-04-23T04:31:26;97496.50;;;15.67;71.47
15884;BME280;8040;50.254;10.960;2023-04-23T04:33:55;97488.56;;;15.62;72.20
15884;BME280;8040;50.254;10.960;2023-04-23T04:36:22;97502.56;;;15.61;72.15
15884;BME280;8040;50.254;10.960;2023-04-23T04:38:49;97500.91;;;15.56;72.23
15884;BME280;8040;50.254;10.960;2023-04-23T04:41:16;97508.09;;;15.49;72.79
15884;BME280;8040;50.254;10.960;2023-04-23T04:43:44;97503.09;;;15.51;72.82
15884;BME280;8040;50.254;10.960;2023-04-23T04:46:10;97494.34;;;15.45;73.12
15884;BME280;8040;50.254;10.960;2023-04-23T04:48:36;97502.88;;;15.44;73.10
15884;BME280;8040;50.254;10.960;2023-04-23T04:51:01;97497.41;;;15.44;73.34
15884;BME280;8040;50.254;10.960;2023-04-23T04:53:27;97505.84;;;15.51;73.26
15884;BME280;8040;50.254;10.960;2023-04-23T04:55:52;97499.38;;;15.43;73.19
15884;BME280;8040;50.254;10.960;2023-04-23T04:58:18;97509.16;;;15.44;72.89
15884;BME280;8040;50.254;10.960;2023-04-23T05:00:43;97507.28;;;15.33;73.47
15884;BME280;8040;50.254;10.960;2023-04-23T05:03:09;97501.81;;;15.33;73.63
15884;BME280;8040;50.254;10.960;2023-04-23T05:05:34;97495.22;;;15.22;73.75
15884;BME280;8040;50.254;10.960;2023-04-23T05:07:59;97500.53;;;15.30;74.02
15884;BME280;8040;50.254;10.960;2023-04-23T05:10:27;97503.94;;;15.39;74.05
15884;BME280;8040;50.254;10.960;2023-04-23T05:12:53;97509.50;;;15.31;73.78
15884;BME280;8040;50.254;10.960;2023-04-23T05:15:19;97517.50;;;15.36;74.10
15884;BME280;8040;50.254;10.960;2023-04-23T05:17:44;97513.38;;;15.42;74.26
15884;BME280;8040;50.254;10.960;2023-04-23T05:20:10;97517.50;;;15.36;73.74
15884;BME280;8040;50.254;10.960;2023-04-23T05:22:37;97517.78;;;15.46;73.81
15884;BME280;8040;50.254;10.960;2023-04-23T05:25:04;97520.88;;;15.45;74.06
15884;BME280;8040;50.254;10.960;2023-04-23T05:27:29;97517.06;;;15.34;74.31
15884;BME280;8040;50.254;10.960;2023-04-23T05:29:55;97523.88;;;15.40;75.36
15884;BME280;8040;50.254;10.960;2023-04-23T05:32:20;97513.38;;;15.30;75.33
15884;BME280;8040;50.254;10.960;2023-04-23T05:34:45;97516.56;;;15.32;75.97
15884;BME280;8040;50.254;10.960;2023-04-23T05:37:11;97511.59;;;15.22;76.46
15884;BME280;8040;50.254;10.960;2023-04-23T05:39:36;97515.91;;;15.35;77.09
15884;BME280;8040;50.254;10.960;2023-04-23T05:42:04;97484.56;;;15.05;77.43
15884;BME280;8040;50.254;10.960;2023-04-23T05:44:29;97507.63;;;15.19;77.78
15884;BME280;8040;50.254;10.960;2023-04-23T05:46:55;97523.31;;;15.34;78.48
15884;BME280;8040;50.254;10.960;2023-04-23T05:49:20;97515.19;;;15.38;78.76
15884;BME280;8040;50.254;10.960;2023-04-23T05:51:45;97508.34;;;15.32;78.51
15884;BME280;8040;50.254;10.960;2023-04-23T05:54:11;97518.19;;;15.33;78.42
15884;BME280;8040;50.254;10.960;2023-04-23T05:56:36;97532.75;;;15.37;78.20
15884;BME280;8040;50.254;10.960;2023-04-23T05:59:01;97525.03;;;15.27;78.13
15884;BME280;8040;50.254;10.960;2023-04-23T06:01:27;97520.47;;;15.19;78.57
15884;BME280;8040;50.254;10.960;2023-04-23T06:03:53;97533.13;;;15.23;78.79
15884;BME280;8040;50.254;10.960;2023-04-23T06:06:18;97522.44;;;15.18;78.93
15884;BME280;8040;50.254;10.960;2023-04-23T06:08:43;97519.56;;;15.27;78.75
15884;BME280;8040;50.254;10.960;2023-04-23T06:11:09;97538.78;;;15.30;78.69
15884;BME280;8040;50.254;10.960;2023-04-23T06:13:34;97550.28;;;15.36;78.69
15884;BME280;8040;50.254;10.960;2023-04-23T06:16:07;97532.84;;;15.28;78.66
15884;BME280;8040;50.254;10.960;2023-04-23T06:18:33;97544.13;;;15.39;78.10
15884;BME280;8040;50.254;10.960;2023-04-23T06:20:59;97536.19;;;15.34;78.02
15884;BME280;8040;50.254;10.960;2023-04-23T06:23:29;97552.78;;;15.41;77.05
15884;BME280;8040;50.254;10.960;2023-04-23T06:25:54;97549.34;;;15.32;76.71
15884;BME280;8040;50.254;10.960;2023-04-23T06:28:20;97545.81;;;15.43;76.39
15884;BME280;8040;50.254;10.960;2023-04-23T06:30:45;97558.44;;;15.48;75.48
15884;BME280;8040;50.254;10.960;2023-04-23T06:33:11;97537.06;;;15.38;75.48
15884;BME280;8040;50.254;10.960;2023-04-23T06:35:36;97554.84;;;15.59;75.35
15884;BME280;8040;50.254;10.960;2023-04-23T06:38:02;97556.22;;;15.81;75.65
15884;BME280;8040;50.254;10.960;2023-04-23T06:40:27;97542.88;;;15.91;74.65
15884;BME280;8040;50.254;10.960;2023-04-23T06:42:52;97549.03;;;16.03;74.19
15884;BME280;8040;50.254;10.960;2023-04-23T06:45:18;97548.53;;;16.13;73.72
15884;BME280;8040;50.254;10.960;2023-04-23T06:47:44;97555.25;;;16.16;72.70
15884;BME280;8040;50.254;10.960;2023-04-23T06:50:09;97560.38;;;16.17;71.38
15884;BME280;8040;50.254;10.960;2023-04-23T06:52:35;97546.84;;;15.94;70.40
15884;BME280;8040;50.254;10.960;2023-04-23T06:55:00;97562.34;;;15.90;70.99
15884;BME280;8040;50.254;10.960;2023-04-23T06:57:27;97564.19;;;15.86;70.68
15884;BME280;8040;50.254;10.960;2023-04-23T06:59:52;97555.47;;;15.80;70.87
15884;BME280;8040;50.254;10.960;2023-04-23T07:02:17;97562.75;;;15.76;70.96
15884;BME280;8040;50.254;10.960;2023-04-23T07:04:43;97553.78;;;15.76;70.97
15884;BME280;8040;50.254;10.960;2023-04-23T07:07:08;97573.53;;;15.85;71.60
15884;BME280;8040;50.254;10.960;2023-04-23T07:09:34;97552.63;;;15.77;71.10
15884;BME280;8040;50.254;10.960;2023-04-23T07:12:02;97555.56;;;15.84;70.87
15884;BME280;8040;50.254;10.960;2023-04-23T07:14:27;97561.22;;;15.91;70.77
15884;BME280;8040;50.254;10.960;2023-04-23T07:16:55;97562.44;;;15.93;70.65
15884;BME280;8040;50.254;10.960;2023-04-23T07:19:20;97559.63;;;15.90;70.20
15884;BME280;8040;50.254;10.960;2023-04-23T07:21:45;97568.50;;;15.87;69.40
15884;BME280;8040;50.254;10.960;2023-04-23T07:24:11;97564.00;;;15.79;68.91
15884;BME280;8040;50.254;10.960;2023-04-23T07:26:36;97572.00;;;15.72;68.20
15884;BME280;8040;50.254;10.960;2023-04-23T07:29:03;97570.28;;;15.79;68.13
15884;BME280;8040;50.254;10.960;2023-04-23T07:31:29;97550.81;;;15.69;67.73
15884;BME280;8040;50.254;10.960;2023-04-23T07:33:55;97571.66;;;15.73;67.08
15884;BME280;8040;50.254;10.960;2023-04-23T07:36:21;97569.47;;;15.79;67.53
15884;BME280;8040;50.254;10.960;2023-04-23T07:38:46;97570.03;;;15.84;67.75
15884;BME280;8040;50.254;10.960;2023-04-23T07:41:12;97562.50;;;15.81;66.93
15884;BME280;8040;50.254;10.960;2023-04-23T07:43:38;97581.09;;;16.03;66.96
15884;BME280;8040;50.254;10.960;2023-04-23T07:46:06;97576.06;;;16.20;66.39
15884;BME280;8040;50.254;10.960;2023-04-23T07:48:31;97573.00;;;16.37;64.84
15884;BME280;8040;50.254;10.960;2023-04-23T07:50:59;97575.69;;;16.49;63.58
15884;BME280;8040;50.254;10.960;2023-04-23T07:53:28;97566.06;;;16.55;63.48
15884;BME280;8040;50.254;10.960;2023-04-23T07:55:54;97588.72;;;16.71;61.67
15884;BME280;8040;50.254;10.960;2023-04-23T07:58:23;97574.16;;;16.83;60.34
15884;BME280;8040;50.254;10.960;2023-04-23T08:00:49;97591.09;;;16.88;60.26
15884;BME280;8040;50.254;10.960;2023-04-23T08:03:15;97571.84;;;16.85;60.24
15884;BME280;8040;50.254;10.960;2023-04-23T08:05:40;97570.84;;;16.93;60.55
15884;BME280;8040;50.254;10.960;2023-04-23T08:08:06;97563.94;;;16.99;59.56
15884;BME280;8040;50.254;10.960;2023-04-23T08:10:33;97577.53;;;17.11;59.65
15884;BME280;8040;50.254;10.960;2023-04-23T08:12:59;97572.97;;;16.99;59.42
15884;BME280;8040;50.254;10.960;2023-04-23T08:15:24;97574.00;;;17.10;59.68
15884;BME280;8040;50.254;10.960;2023-04-23T08:17:50;97558.06;;;17.16;59.47
15884;BME280;8040;50.254;10.960;2023-04-23T08:20:16;97552.88;;;17.11;58.83
15884;BME280;8040;50.254;10.960;2023-04-23T08:22:42;97555.69;;;17.14;57.86
15884;BME280;8040;50.254;10.960;2023-04-23T08:25:08;97565.38;;;17.27;57.16
15884;BME280;8040;50.254;10.960;2023-04-23T08:27:33;97563.78;;;17.26;56.31
15884;BME280;8040;50.254;10.960;2023-04-23T08:29:59;97560.06;;;17.34;55.25
15884;BME280;8040;50.254;10.960;2023-04-23T08:32:24;97548.38;;;17.37;55.19
15884;BME280;8040;50.254;10.960;2023-04-23T08:34:50;97549.84;;;17.50;55.22
15884;BME280;8040;50.254;10.960;2023-04-23T08:37:16;97558.38;;;17.64;52.98
15884;BME280;8040;50.254;10.960;2023-04-23T08:39:42;97562.09;;;17.75;52.96
15884;BME280;8040;50.254;10.960;2023-04-23T08:42:18;97570.75;;;17.96;52.63
15884;BME280;8040;50.254;10.960;2023-04-23T08:44:47;97566.44;;;17.95;51.63
15884;BME280;8040;50.254;10.960;2023-04-23T08:47:16;97554.94;;;17.90;51.12
15884;BME280;8040;50.254;10.960;2023-04-23T08:49:44;97565.47;;;17.88;50.66
15884;BME280;8040;50.254;10.960;2023-04-23T08:52:21;97553.41;;;17.92;50.33
15884;BME280;8040;50.254;10.960;2023-04-23T08:54:51;97569.25;;;18.21;49.89
15884;BME280;8040;50.254;10.960;2023-04-23T08:57:17;97565.03;;;18.27;48.54
15884;BME280;8040;50.254;10.960;2023-04-23T08:59:43;97550.84;;;18.22;48.86
15884;BME280;8040;50.254;10.960;2023-04-23T09:02:10;97549.34;;;18.05;48.45
15884;BME280;8040;50.254;10.960;2023-04-23T09:04:36;97556.31;;;17.80;47.78
15884;BME280;8040;50.254;10.960;2023-04-23T09:07:02;97568.47;;;17.60;48.25
15884;BME280;8040;50.254;10.960;2023-04-23T09:09:32;97562.47;;;17.55;47.95
15884;BME280;8040;50.254;10.960;2023-04-23T09:11:57;97555.78;;;17.52;48.04
15884;BME280;8040;50.254;10.960;2023-04-23T09:14:23;97556.34;;;17.61;48.12
15884;BME280;8040;50.254;10.960;2023-04-23T09:16:49;97559.22;;;17.68;46.90
15884;BME280;8040;50.254;10.960;2023-04-23T09:19:16;97548.97;;;17.65;46.79
15884;BME280;8040;50.254;10.960;2023-04-23T09:21:43;97552.56;;;17.69;46.19
15884;BME280;8040;50.254;10.960;2023-04-23T09:24:13;97542.25;;;17.82;47.05
15884;BME280;8040;50.254;10.960;2023-04-23T09:26:48;97542.09;;;18.16;46.84
15884;BME280;8040;50.254;10.960;2023-04-23T09:29:18;97549.75;;;18.49;46.91
15884;BME280;8040;50.254;10.960;2023-04-23T09:31:46;97534.81;;;18.72;46.47
15884;BME280;8040;50.254;10.960;2023-04-23T09:34:14;97537.16;;;18.96;46.51
15884;BME280;8040;50.254;10.960;2023-04-23T09:36:43;97515.56;;;18.95;45.85
15884;BME280;8040;50.254;10.960;2023-04-23T09:39:15;97541.19;;;19.28;45.89
15884;BME280;8040;50.254;10.960;2023-04-23T09:41:41;97532.19;;;19.31;44.81
15884;BME280;8040;50.254;10.960;2023-04-23T09:44:07;97527.69;;;19.49;45.31
15884;BME280;8040;50.254;10.960;2023-04-23T09:46:41;97516.69;;;19.49;44.34
15884;BME280;8040;50.254;10.960;2023-04-23T09:49:07;97531.22;;;19.46;44.45
15884;BME280;8040;50.254;10.960;2023-04-23T09:54:20;97515.22;;;19.00;44.64
15884;BME280;8040;50.254;10.960;2023-04-23T09:56:52;97517.44;;;18.91;44.55
15884;BME280;8040;50.254;10.960;2023-04-23T09:59:26;97525.66;;;18.87;45.00
15884;BME280;8040;50.254;10.960;2023-04-23T10:01:52;97508.25;;;18.80;44.62
15884;BME280;8040;50.254;10.960;2023-04-23T10:04:19;97497.81;;;18.89;45.26
15884;BME280;8040;50.254;10.960;2023-04-23T10:06:54;97504.72;;;19.05;44.75
15884;BME280;8040;50.254;10.960;2023-04-23T10:09:23;97502.91;;;19.16;44.42
15884;BME280;8040;50.254;10.960;2023-04-23T10:11:59;97502.25;;;19.26;44.59
15884;BME280;8040;50.254;10.960;2023-04-23T10:14:28;97497.81;;;19.48;44.73
15884;BME280;8040;50.254;10.960;2023-04-23T10:17:01;97516.84;;;19.63;44.46
15884;BME280;8040;50.254;10.960;2023-04-23T10:19:28;97501.13;;;19.60;44.59
15884;BME280;8040;50.254;10.960;2023-04-23T10:22:01;97506.19;;;19.58;44.39
15884;BME280;8040;50.254;10.960;2023-04-23T10:24:38;97506.38;;;19.72;44.87
15884;BME280;8040;50.254;10.960;2023-04-23T10:27:10;97506.44;;;19.79;44.29
15884;BME280;8040;50.254;10.960;2023-04-23T10:29:35;97510.09;;;19.90;44.11
15884;BME280;8040;50.254;10.960;2023-04-23T10:32:02;97501.66;;;19.76;42.95
15884;BME280;8040;50.254;10.960;2023-04-23T10:34:29;97493.75;;;19.68;43.63
15884;BME280;8040;50.254;10.960;2023-04-23T10:36:56;97494.16;;;19.70;42.94
15884;BME280;8040;50.254;10.960;2023-04-23T10:39:25;97491.16;;;19.85;43.32
15884;BME280;8040;50.254;10.960;2023-04-23T10:41:53;97495.25;;;20.02;42.63
15884;BME280;8040;50.254;10.960;2023-04-23T10:44:19;97486.34;;;20.12;41.48
15884;BME280;8040;50.254;10.960;2023-04-23T10:46:54;97488.84;;;20.27;42.61
15884;BME280;8040;50.254;10.960;2023-04-23T10:49:29;97480.09;;;20.18;42.18
15884;BME280;8040;50.254;10.960;2023-04-23T10:52:06;97477.63;;;20.06;42.61
15884;BME280;8040;50.254;10.960;2023-04-23T10:54:33;97468.94;;;20.04;42.94
15884;BME280;8040;50.254;10.960;2023-04-23T10:57:03;97462.97;;;19.95;42.03
15884;BME280;8040;50.254;10.960;2023-04-23T10:59:31;97467.41;;;19.70;42.11
15884;BME280;8040;50.254;10.960;2023-04-23T11:01:57;97473.78;;;19.78;42.99
15884;BME280;8040;50.254;10.960;2023-04-23T11:04:25;97472.84;;;19.63;42.49
15884;BME280;8040;50.254;10.960;2023-04-23T11:06:54;97477.16;;;19.64;42.73
15884;BME280;8040;50.254;10.960;2023-04-23T11:09:42;97473.97;;;19.59;43.21
15884;BME280;8040;50.254;10.960;2023-04-23T11:12:29;97466.41;;;19.52;43.75
15884;BME280;8040;50.254;10.960;2023-04-23T11:14:55;97457.13;;;19.64;43.25
15884;BME280;8040;50.254;10.960;2023-04-23T11:20:12;97462.84;;;20.25;41.41
15884;BME280;8040;50.254;10.960;2023-04-23T11:22:40;97442.44;;;20.29;41.45
15884;BME280;8040;50.254;10.960;2023-04-23T11:25:11;97446.00;;;20.33;40.29
15884;BME280;8040;50.254;10.960;2023-04-23T11:27:43;97443.22;;;20.26;40.52
15884;BME280;8040;50.254;10.960;2023-04-23T11:30:13;97449.13;;;20.28;40.86
15884;BME280;8040;50.254;10.960;2023-04-23T11:32:46;97442.81;;;20.31;40.56
15884;BME280;8040;50.254;10.960;2023-04-23T11:35:17;97420.09;;;20.41;39.38
15884;BME280;8040;50.254;10.960;2023-04-23T11:37:44;97424.97;;;20.65;40.99
15884;BME280;8040;50.254;10.960;2023-04-23T11:40:11;97436.53;;;20.85;39.79
15884;BME280;8040;50.254;10.960;2023-04-23T11:42:43;97422.44;;;21.00;40.26
15884;BME280;8040;50.254;10.960;2023-04-23T11:45:25;97428.34;;;21.02;38.65
15884;BME280;8040;50.254;10.960;2023-04-23T11:47:56;97420.13;;;21.16;38.95
15884;BME280;8040;50.254;10.960;2023-04-23T11:50:26;97416.63;;;21.23;38.34
15884;BME280;8040;50.254;10.960;2023-04-23T11:52:52;97409.56;;;21.29;38.01
15884;BME280;8040;50.254;10.960;2023-04-23T11:55:18;97404.78;;;21.15;37.01
15884;BME280;8040;50.254;10.960;2023-04-23T11:57:45;97396.13;;;21.20;38.89
15884;BME280;8040;50.254;10.960;2023-04-23T12:00:16;97419.00;;;21.21;38.59
15884;BME280;8040;50.254;10.960;2023-04-23T12:02:54;97398.91;;;21.24;38.65
15884;BME280;8040;50.254;10.960;2023-04-23T12:05:33;97404.00;;;21.18;38.32
15884;BME280;8040;50.254;10.960;2023-04-23T12:08:19;97411.47;;;21.18;39.17
15884;BME280;8040;50.254;10.960;2023-04-23T12:10:48;97413.41;;;21.10;38.22
15884;BME280;8040;50.254;10.960;2023-04-23T12:13:28;97408.66;;;21.00;37.67
15884;BME280;8040;50.254;10.960;2023-04-23T12:15:59;97407.88;;;21.07;38.32
15884;BME280;8040;50.254;10.960;2023-04-23T12:18:39;97404.25;;;20.89;37.48
15884;BME280;8040;50.254;10.960;2023-04-23T12:21:08;97401.88;;;20.84;37.90
15884;BME280;8040;50.254;10.960;2023-04-23T12:23:34;97408.50;;;20.76;38.29
15884;BME280;8040;50.254;10.960;2023-04-23T12:26:01;97395.88;;;20.71;38.71
15884;BME280;8040;50.254;10.960;2023-04-23T12:28:30;97397.47;;;20.79;38.96
15884;BME280;8040;50.254;10.960;2023-04-23T12:31:00;97386.94;;;20.88;38.78
15884;BME280;8040;50.254;10.960;2023-04-23T12:33:29;97390.41;;;20.78;38.47
15884;BME280;8040;50.254;10.960;2023-04-23T12:35:56;97390.38;;;20.71;38.28
15884;BME280;8040;50.254;10.960;2023-04-23T12:38:27;97380.75;;;20.41;38.95
15884;BME280;8040;50.254;10.960;2023-04-23T12:40:54;97385.81;;;20.35;39.53
15884;BME280;8040;50.254;10.960;2023-04-23T12:43:20;97373.59;;;20.33;39.47
15884;BME280;8040;50.254;10.960;2023-04-23T12:45:45;97373.94;;;20.28;39.50
15884;BME280;8040;50.254;10.960;2023-04-23T12:48:11;97383.13;;;20.46;39.44
15884;BME280;8040;50.254;10.960;2023-04-23T12:50:37;97390.25;;;20.50;39.28
15884;BME280;8040;50.254;10.960;2023-04-23T12:53:07;97377.59;;;20.46;39.48
15884;BME280;8040;50.254;10.960;2023-04-23T12:55:32;97383.91;;;20.46;39.35
15884;BME280;8040;50.254;10.960;2023-04-23T12:57:58;97372.97;;;20.57;39.61
15884;BME280;8040;50.254;10.960;2023-04-23T13:00:24;97359.63;;;20.62;39.59
15884;BME280;8040;50.254;10.960;2023-04-23T13:02:49;97357.28;;;20.68;39.52
15884;BME280;8040;50.254;10.960;2023-04-23T13:05:15;97357.63;;;20.59;38.78
15884;BME280;8040;50.254;10.960;2023-04-23T13:07:40;97356.78;;;20.52;38.92